createdAt,value
2022-10-05T00:02:32.294Z,7.36
2022-10-05T00:05:34.442Z,7.21
2022-10-05T00:08:36.565Z,7.12
2022-10-05T00:11:38.108Z,7.10
2022-10-05T00:14:40.064Z,6.92
2022-10-05T00:17:43.293Z,6.78
2022-10-05T00:20:45.755Z,7.11
2022-10-05T00:23:47.992Z,6.55
2022-10-05T00:26:55.418Z,6.28
2022-10-05T00:30:02.893Z,6.40
2022-10-05T00:33:04.548Z,5.94
2022-10-05T00:36:07.241Z,6.13
2022-10-05T00:39:10.063Z,6.53
2022-10-05T00:42:36.483Z,6.61
2022-10-05T00:45:44.132Z,6.98
2022-10-05T00:49:01.028Z,6.16
2022-10-05T00:52:40.316Z,5.79
2022-10-05T00:56:04.633Z,5.46
2022-10-05T00:59:40.097Z,6.19
2022-10-05T01:03:08.126Z,5.93
2022-10-05T01:06:36.877Z,5.88
2022-10-05T01:09:48.243Z,6.22
2022-10-05T01:12:55.984Z,6.48
2022-10-05T01:16:25.257Z,6.34
2022-10-05T01:19:45.701Z,6.58
2022-10-05T01:22:47.169Z,6.46
2022-10-05T01:26:27.355Z,6.05
2022-10-05T01:29:36.855Z,5.52
2022-10-05T01:32:43.232Z,5.14
2022-10-05T01:35:56.503Z,5.27
2022-10-05T01:39:42.331Z,5.45
2022-10-05T01:43:02.968Z,5.32
2022-10-05T01:46:32.951Z,5.08
2022-10-05T01:50:03.063Z,5.70
2022-10-05T01:53:31.945Z,5.78
2022-10-05T01:56:51.030Z,5.80
2022-10-05T02:00:04.754Z,5.86
2022-10-05T02:03:16.566Z,5.72
2022-10-05T02:06:25.409Z,5.63
2022-10-05T02:09:32.102Z,5.70
2022-10-05T02:12:37.794Z,5.59
2022-10-05T02:15:46.314Z,5.57
2022-10-05T02:18:54.865Z,5.31
2022-10-05T02:22:05.306Z,5.71
2022-10-05T02:25:13.397Z,5.59
2022-10-05T02:28:27.239Z,5.40
2022-10-05T02:31:36.275Z,5.34
2022-10-05T02:34:43.199Z,5.34
2022-10-05T02:37:54.420Z,5.23
2022-10-05T02:41:10.992Z,5.35
2022-10-05T02:44:26.488Z,5.31
2022-10-05T02:48:05.948Z,5.13
2022-10-05T02:51:28.095Z,5.13
2022-10-05T02:54:48.398Z,5.21
2022-10-05T02:58:16.247Z,5.14
2022-10-05T03:01:39.442Z,5.15
2022-10-05T03:05:16.196Z,5.23
2022-10-05T03:08:34.434Z,4.92
2022-10-05T03:12:03.691Z,5.23
2022-10-05T03:15:40.625Z,5.10
2022-10-05T03:19:00.818Z,5.23
2022-10-05T03:22:22.595Z,5.13
2022-10-05T03:25:39.214Z,5.27
2022-10-05T03:29:01.917Z,5.09
2022-10-05T03:32:15.814Z,5.32
2022-10-05T03:35:28.106Z,5.25
2022-10-05T03:38:50.097Z,5.18
2022-10-05T03:42:04.590Z,5.21
2022-10-05T03:45:27.580Z,5.05
2022-10-05T03:48:54.538Z,5.16
2022-10-05T03:52:23.515Z,5.02
2022-10-05T03:55:42.865Z,5.03
2022-10-05T03:58:59.567Z,5.19
2022-10-05T04:02:06.005Z,4.96
2022-10-05T04:05:30.940Z,5.16
2022-10-05T04:08:47.901Z,4.98
2022-10-05T04:12:04.936Z,5.22
2022-10-05T04:15:19.113Z,5.01
2022-10-05T04:18:39.177Z,5.08
2022-10-05T04:22:02.521Z,5.10
2022-10-05T04:25:37.297Z,4.96
2022-10-05T04:28:53.890Z,4.96
2022-10-05T04:32:22.282Z,4.81
2022-10-05T04:35:54.703Z,4.58
2022-10-05T04:39:08.541Z,4.74
2022-10-05T04:42:36.250Z,4.85
2022-10-05T04:46:29.501Z,4.73
2022-10-05T04:49:40.399Z,4.67
2022-10-05T04:52:59.244Z,4.41
2022-10-05T04:56:12.334Z,4.70
2022-10-05T04:59:32.007Z,4.86
2022-10-05T05:03:13.600Z,4.84
2022-10-05T05:06:17.785Z,5.06
2022-10-05T05:09:42.598Z,5.12
2022-10-05T05:13:18.954Z,5.14
2022-10-05T05:16:23.654Z,5.31
2022-10-05T05:20:02.526Z,5.46
2022-10-05T05:23:26.818Z,5.65
2022-10-05T05:26:49.796Z,5.65
2022-10-05T05:30:22.493Z,5.70
2022-10-05T05:33:35.628Z,5.71
2022-10-05T05:36:55.749Z,5.93
2022-10-05T05:40:15.821Z,6.30
2022-10-05T05:43:45.844Z,6.48
2022-10-05T05:47:03.933Z,6.80
2022-10-05T05:50:18.085Z,6.97
2022-10-05T05:53:49.078Z,7.11
2022-10-05T05:57:08.432Z,7.42
2022-10-05T06:00:23.328Z,7.68
2022-10-05T06:03:52.355Z,8.09
2022-10-05T06:06:58.219Z,8.24
2022-10-05T06:10:29.488Z,8.49
2022-10-05T06:13:35.898Z,8.77
2022-10-05T06:16:46.631Z,9.04
2022-10-05T06:19:53.721Z,9.35
2022-10-05T06:23:00.950Z,9.63
2022-10-05T06:26:20.698Z,9.71
2022-10-05T06:29:26.114Z,10.03
2022-10-05T06:33:01.226Z,10.19
2022-10-05T06:36:33.788Z,10.52
2022-10-05T06:40:00.945Z,10.78
2022-10-05T06:43:06.375Z,11.08
2022-10-05T06:46:14.023Z,11.25
2022-10-05T06:49:23.560Z,11.48
2022-10-05T06:52:59.876Z,11.44
2022-10-05T06:56:41.521Z,11.48
2022-10-05T07:00:12.629Z,11.54
2022-10-05T07:03:46.850Z,11.27
2022-10-05T07:06:58.197Z,11.38
2022-10-05T07:10:47.881Z,11.23
2022-10-05T07:13:55.440Z,11.41
2022-10-05T07:17:34.565Z,11.61
2022-10-05T07:20:50.201Z,11.80
2022-10-05T07:24:13.511Z,12.16
2022-10-05T07:27:21.087Z,12.27
2022-10-05T07:30:23.047Z,12.19
2022-10-05T07:33:31.770Z,12.18
2022-10-05T07:37:06.055Z,12.30
2022-10-05T07:40:18.534Z,13.34
2022-10-05T07:44:02.450Z,15.20
2022-10-05T07:47:18.305Z,15.92
2022-10-05T07:50:26.742Z,17.09
2022-10-05T07:53:32.108Z,18.89
2022-10-05T07:56:40.448Z,19.50
2022-10-05T08:00:02.093Z,19.61
2022-10-05T08:03:14.126Z,21.45
2022-10-05T08:06:34.765Z,21.35
2022-10-05T08:09:45.792Z,22.23
2022-10-05T08:13:18.465Z,22.87
2022-10-05T08:16:25.746Z,23.73
2022-10-05T08:19:38.796Z,23.41
2022-10-05T08:22:46.217Z,23.05
2022-10-05T08:25:50.868Z,23.71
2022-10-05T08:29:01.116Z,25.03
2022-10-05T08:32:09.635Z,24.96
2022-10-05T08:35:24.231Z,24.60
2022-10-05T08:38:32.885Z,24.30
2022-10-05T08:41:46.832Z,23.81
2022-10-05T08:45:13.325Z,25.77
2022-10-05T08:48:33.713Z,26.41
2022-10-05T08:51:35.483Z,27.10
2022-10-05T08:54:55.705Z,27.93
2022-10-05T08:58:26.014Z,25.79
2022-10-05T09:01:36.693Z,25.54
2022-10-05T09:05:06.487Z,27.97
2022-10-05T09:08:54.044Z,29.31
2022-10-05T09:12:22.999Z,29.60
2022-10-05T09:15:33.992Z,29.14
2022-10-05T09:19:09.710Z,29.40
2022-10-05T09:22:38.640Z,27.27
2022-10-05T09:25:59.875Z,28.69
2022-10-05T09:29:36.906Z,30.23
2022-10-05T09:33:06.357Z,31.56
2022-10-05T09:36:47.972Z,33.93
2022-10-05T09:40:20.363Z,35.60
2022-10-05T09:43:40.346Z,35.80
2022-10-05T09:47:10.262Z,28.94
2022-10-05T09:50:32.989Z,30.96
2022-10-05T09:53:53.970Z,30.42
2022-10-05T09:57:14.458Z,28.00
2022-10-05T10:00:35.371Z,24.62
2022-10-05T10:04:02.009Z,23.43
2022-10-05T10:07:25.114Z,22.11
2022-10-05T10:10:42.137Z,22.08
2022-10-05T10:17:00.256Z,21.70
2022-10-05T10:20:35.995Z,21.56
2022-10-05T10:24:16.935Z,21.01
2022-10-05T10:27:39.590Z,20.29
2022-10-05T10:30:52.862Z,20.08
2022-10-05T10:34:13.404Z,19.99
2022-10-05T10:37:50.692Z,19.42
2022-10-05T10:41:11.523Z,19.63
2022-10-05T10:44:31.918Z,19.55
2022-10-05T10:47:54.584Z,19.82
2022-10-05T10:51:04.422Z,18.49
2022-10-05T10:54:53.332Z,18.93
2022-10-05T10:58:16.070Z,19.85
2022-10-05T11:01:47.110Z,19.69
2022-10-05T11:05:21.228Z,20.06
2022-10-05T11:08:50.630Z,19.92
2022-10-05T11:12:34.209Z,19.07
2022-10-05T11:16:01.250Z,19.42
2022-10-05T11:19:46.259Z,19.37
2022-10-05T11:23:15.071Z,18.66
2022-10-05T11:26:16.540Z,19.27
2022-10-05T11:29:26.814Z,19.04
2022-10-05T11:32:44.623Z,18.97
2022-10-05T11:35:56.085Z,19.31
2022-10-05T11:39:16.226Z,19.32
2022-10-05T11:42:35.863Z,19.12
2022-10-05T11:46:05.572Z,19.40
2022-10-05T11:49:35.623Z,18.79
2022-10-05T11:52:45.960Z,19.22
2022-10-05T11:56:18.382Z,18.86
2022-10-05T11:59:53.787Z,19.33
2022-10-05T12:03:31.370Z,19.28
2022-10-05T12:06:40.823Z,19.46
2022-10-05T12:10:21.210Z,19.64
2022-10-05T12:13:52.984Z,19.18
2022-10-05T12:17:00.204Z,19.12
2022-10-05T12:20:06.992Z,19.07
2022-10-05T12:23:52.256Z,19.26
2022-10-05T12:27:08.047Z,18.94
2022-10-05T12:30:28.747Z,18.87
2022-10-05T12:33:51.460Z,18.98
2022-10-05T12:37:04.786Z,19.13
2022-10-05T12:40:12.523Z,19.30
2022-10-05T12:43:20.054Z,19.26
2022-10-05T12:46:30.245Z,19.56
2022-10-05T12:49:37.638Z,19.41
2022-10-05T12:53:05.435Z,19.80
2022-10-05T12:56:42.781Z,19.31
2022-10-05T12:59:59.599Z,18.81
2022-10-05T13:03:16.756Z,18.89
2022-10-05T13:06:20.976Z,18.98
2022-10-05T13:09:32.141Z,19.26
2022-10-05T13:12:49.003Z,19.44
2022-10-05T13:15:56.674Z,19.50
2022-10-05T13:19:01.168Z,19.43
2022-10-05T13:22:27.612Z,19.33
2022-10-05T13:25:42.483Z,19.99
2022-10-05T13:28:48.553Z,22.68
2022-10-05T13:32:27.175Z,24.79
2022-10-05T13:35:56.798Z,25.24
2022-10-05T13:39:08.196Z,25.33
2022-10-05T13:42:15.382Z,26.16
2022-10-05T13:45:21.478Z,26.72
2022-10-05T13:48:41.778Z,26.66
2022-10-05T13:51:46.224Z,26.47
2022-10-05T13:55:06.159Z,27.39
2022-10-05T13:58:23.136Z,28.80
2022-10-05T14:01:41.775Z,29.38
2022-10-05T14:04:45.056Z,28.73
2022-10-05T14:08:15.695Z,28.48
2022-10-05T14:11:37.055Z,26.94
2022-10-05T14:14:47.725Z,23.93
2022-10-05T14:17:51.751Z,22.85
2022-10-05T14:21:08.789Z,21.54
2022-10-05T14:24:44.497Z,20.64
2022-10-05T14:28:28.683Z,20.56
2022-10-05T14:31:36.183Z,19.74
2022-10-05T14:34:54.971Z,19.40
2022-10-05T14:38:01.071Z,19.39
2022-10-05T14:41:09.601Z,18.95
2022-10-05T14:44:11.287Z,19.04
2022-10-05T14:47:24.059Z,18.58
2022-10-05T14:50:29.653Z,18.59
2022-10-05T14:53:57.050Z,18.33
2022-10-05T14:57:07.712Z,18.44
2022-10-05T15:00:12.517Z,18.48
2022-10-05T15:03:46.923Z,18.44
2022-10-05T15:07:04.449Z,18.29
2022-10-05T15:10:26.931Z,18.25
2022-10-05T15:13:33.087Z,18.22
2022-10-05T15:16:39.368Z,18.26
2022-10-05T15:19:54.506Z,18.27
2022-10-05T15:23:11.329Z,18.05
2022-10-05T15:26:47.073Z,17.76
2022-10-05T15:30:18.200Z,17.54
2022-10-05T15:33:46.708Z,17.53
2022-10-05T15:37:03.124Z,17.26
2022-10-05T15:40:08.590Z,17.19
2022-10-05T15:43:22.940Z,17.01
2022-10-05T15:46:35.615Z,16.98
2022-10-05T15:50:04.199Z,16.92
2022-10-05T15:53:13.574Z,16.81
2022-10-05T15:56:22.280Z,16.75
2022-10-05T15:59:30.580Z,16.64
2022-10-05T16:02:59.482Z,16.66
2022-10-05T16:06:45.221Z,16.36
2022-10-05T16:10:02.273Z,16.22
2022-10-05T16:13:22.483Z,15.91
2022-10-05T16:16:43.125Z,15.99
2022-10-05T16:19:54.100Z,15.75
2022-10-05T16:23:26.565Z,15.60
2022-10-05T16:26:43.619Z,15.37
2022-10-05T16:30:13.786Z,15.12
2022-10-05T16:33:18.367Z,14.90
2022-10-05T16:36:41.107Z,14.85
2022-10-05T16:40:11.282Z,14.97
2022-10-05T16:43:34.274Z,14.91
2022-10-05T16:46:52.586Z,14.96
2022-10-05T16:50:17.727Z,14.75
2022-10-05T16:53:24.298Z,14.90
2022-10-05T16:56:34.234Z,14.75
2022-10-05T17:00:08.101Z,14.69
2022-10-05T17:03:12.733Z,14.35
2022-10-05T17:06:33.230Z,14.29
2022-10-05T17:09:43.976Z,14.28
2022-10-05T17:13:02.642Z,14.17
2022-10-05T17:16:22.854Z,14.17
2022-10-05T17:19:50.543Z,13.95
2022-10-05T17:22:58.045Z,13.96
2022-10-05T17:26:27.192Z,13.89
2022-10-05T17:29:31.206Z,13.65
2022-10-05T17:32:36.569Z,13.76
2022-10-05T17:36:03.263Z,13.51
2022-10-05T17:39:43.936Z,13.34
2022-10-05T17:42:46.564Z,13.44
2022-10-05T17:45:51.628Z,13.38
2022-10-05T17:48:56.442Z,13.30
2022-10-05T17:52:32.431Z,13.34
2022-10-05T17:55:34.234Z,12.95
2022-10-05T17:58:35.693Z,13.04
2022-10-05T18:01:40.541Z,13.00
2022-10-05T18:05:05.119Z,13.01
2022-10-05T18:08:12.860Z,13.01
2022-10-05T18:11:33.519Z,12.98
2022-10-05T18:15:14.181Z,12.95
2022-10-05T18:18:36.132Z,12.90
2022-10-05T18:21:38.907Z,12.75
2022-10-05T18:24:45.306Z,12.75
2022-10-05T18:28:06.562Z,12.61
2022-10-05T18:31:46.509Z,12.46
2022-10-05T18:35:02.241Z,12.28
2022-10-05T18:38:26.543Z,12.26
2022-10-05T18:42:07.367Z,12.19
2022-10-05T18:45:29.672Z,12.19
2022-10-05T18:48:48.828Z,12.23
2022-10-05T18:51:59.549Z,12.27
2022-10-05T18:55:20.764Z,12.25
2022-10-05T18:58:52.058Z,12.23
2022-10-05T19:02:12.014Z,12.30
2022-10-05T19:05:47.111Z,12.41
2022-10-05T19:09:27.728Z,12.50
2022-10-05T19:12:49.480Z,12.46
2022-10-05T19:16:00.050Z,12.55
2022-10-05T19:19:29.347Z,12.41
2022-10-05T19:22:52.426Z,12.55
2022-10-05T19:26:03.765Z,12.62
2022-10-05T19:29:19.374Z,12.46
2022-10-05T19:32:42.521Z,12.39
2022-10-05T19:36:16.784Z,12.40
2022-10-05T19:39:54.180Z,12.49
2022-10-05T19:42:56.330Z,12.47
2022-10-05T19:46:08.684Z,12.29
2022-10-05T19:49:13.220Z,12.30
2022-10-05T19:52:48.986Z,12.43
2022-10-05T19:55:55.467Z,12.40
2022-10-05T19:59:09.580Z,12.40
2022-10-05T20:02:15.818Z,12.35
2022-10-05T20:05:18.189Z,12.24
2022-10-05T20:08:21.749Z,12.28
2022-10-05T20:11:31.759Z,12.06
2022-10-05T20:14:58.562Z,11.87
2022-10-05T20:18:58.489Z,11.73
2022-10-05T20:22:32.839Z,11.64
2022-10-05T20:25:37.355Z,11.47
2022-10-05T20:28:39.395Z,11.38
2022-10-05T20:31:41.173Z,11.29
2022-10-05T20:34:44.712Z,11.27
2022-10-05T20:37:46.468Z,11.31
2022-10-05T20:40:48.670Z,11.18
2022-10-05T20:43:50.657Z,11.38
2022-10-05T20:46:55.209Z,11.32
2022-10-05T20:49:57.269Z,11.05
2022-10-05T20:52:58.822Z,11.05
2022-10-05T20:56:04.809Z,10.96
2022-10-05T20:59:06.474Z,10.95
2022-10-05T21:02:08.068Z,10.96
2022-10-05T21:05:10.118Z,10.81
2022-10-05T21:08:11.988Z,10.76
2022-10-05T21:11:14.526Z,10.81
2022-10-05T21:14:16.575Z,10.77
2022-10-05T21:17:20.200Z,10.86
2022-10-05T21:20:22.176Z,10.96
2022-10-05T21:23:23.728Z,10.99
2022-10-05T21:26:25.660Z,10.77
2022-10-05T21:29:27.956Z,10.84
2022-10-05T21:32:29.612Z,10.60
2022-10-05T21:35:31.530Z,10.65
2022-10-05T21:38:33.143Z,10.70
2022-10-05T21:41:34.726Z,10.67
2022-10-05T21:44:36.601Z,10.87
2022-10-05T21:47:38.209Z,10.99
2022-10-05T21:50:40.444Z,11.01
2022-10-05T21:53:47.715Z,11.02
2022-10-05T21:56:55.889Z,10.85
2022-10-05T21:59:57.522Z,10.90
2022-10-05T22:02:59.419Z,10.90
2022-10-05T22:06:01.333Z,10.96
2022-10-05T22:09:04.462Z,10.91
2022-10-05T22:12:06.468Z,11.00
2022-10-05T22:15:09.773Z,11.01
2022-10-05T22:18:17.290Z,10.82
2022-10-05T22:21:21.343Z,10.89
2022-10-05T22:24:22.919Z,10.64
2022-10-05T22:27:27.006Z,10.91
2022-10-05T22:30:29.411Z,10.90
2022-10-05T22:33:31.540Z,10.75
2022-10-05T22:36:37.643Z,10.84
2022-10-05T22:39:40.504Z,10.74
2022-10-05T22:42:42.506Z,10.67
2022-10-05T22:45:44.557Z,10.60
2022-10-05T22:48:46.149Z,10.58
2022-10-05T22:51:49.232Z,10.56
2022-10-05T22:54:51.057Z,10.62
2022-10-05T22:57:52.998Z,10.49
2022-10-05T23:00:58.440Z,10.62
2022-10-05T23:04:00.733Z,10.60
2022-10-05T23:07:02.939Z,10.78
2022-10-05T23:10:07.188Z,10.49
2022-10-05T23:13:09.001Z,10.67
2022-10-05T23:16:13.488Z,10.75
2022-10-05T23:19:15.697Z,10.81
2022-10-05T23:22:17.489Z,10.75
2022-10-05T23:25:19.427Z,10.76
2022-10-05T23:28:21.059Z,10.71
2022-10-05T23:31:26.050Z,10.59
2022-10-05T23:34:27.626Z,10.43
2022-10-05T23:37:29.523Z,10.54
2022-10-05T23:40:31.217Z,10.63
2022-10-05T23:43:33.453Z,10.65
2022-10-05T23:46:35.054Z,10.62
2022-10-05T23:49:36.615Z,10.42
2022-10-05T23:52:38.634Z,10.44
2022-10-05T23:55:40.221Z,10.38
2022-10-05T23:58:42.022Z,10.29
